Time;durP1;ratioP1;P1;durP2;ratioP2;P2;SDS_P1;SDS_P2;PMS_P1;PMS_P2;Temp;Humidity;BMP_temperature;BMP_pressure;BME280_temperature;BME280_humidity;BME280_pressure;Samples;Min_cycle;Max_cycle;Signal;HPM_P1;HPM_P2
2023/07/29 00:00:21;;;;;;;4.43;1.38;;;19.00;99.90;;;;;;4861594;29;20045;-55
2023/07/29 00:02:47;;;;;;;7.07;1.42;;;19.00;99.90;;;;;;4861193;29;20100;-56
2023/07/29 00:05:14;;;;;;;5.75;1.50;;;19.00;99.90;;;;;;4861330;29;20098;-54
2023/07/29 00:07:41;;;;;;;4.88;1.27;;;18.90;99.90;;;;;;4861087;29;20041;-57
2023/07/29 00:10:08;;;;;;;5.38;1.02;;;18.90;99.90;;;;;;4861497;29;20037;-56
2023/07/29 00:12:35;;;;;;;3.65;1.08;;;18.80;99.90;;;;;;4860976;29;20045;-54
2023/07/29 00:15:02;;;;;;;7.03;1.30;;;18.80;99.90;;;;;;4860197;29;20133;-54
2023/07/29 00:17:29;;;;;;;3.35;1.10;;;18.80;99.90;;;;;;4861199;29;20426;-52
2023/07/29 00:19:55;;;;;;;3.95;1.25;;;18.80;99.90;;;;;;4861312;29;20037;-54
2023/07/29 00:22:22;;;;;;;3.00;1.23;;;18.70;99.90;;;;;;4861232;29;20048;-55
2023/07/29 00:24:49;;;;;;;3.72;1.17;;;18.70;99.90;;;;;;4861016;29;20046;-56
2023/07/29 00:27:16;;;;;;;3.92;1.27;;;18.70;99.90;;;;;;4860717;29;20045;-56
2023/07/29 00:29:43;;;;;;;3.88;1.23;;;18.70;99.90;;;;;;4859728;29;20045;-55
2023/07/29 00:32:09;;;;;;;3.60;1.10;;;18.70;99.90;;;;;;4859782;29;20052;-55
2023/07/29 00:34:36;;;;;;;5.13;1.25;;;18.70;99.90;;;;;;4861385;29;20128;-54
2023/07/29 00:37:05;;;;;;;2.97;1.13;;;18.70;99.90;;;;;;4861349;29;20061;-51
2023/07/29 00:39:32;;;;;;;3.85;1.27;;;18.70;99.90;;;;;;4860598;29;20072;-54
2023/07/29 00:41:59;;;;;;;5.28;1.50;;;18.70;99.90;;;;;;4859829;29;20065;-55
2023/07/29 00:44:26;;;;;;;3.00;1.15;;;18.70;99.90;;;;;;4859699;29;20068;-57
2023/07/29 00:46:53;;;;;;;4.55;1.50;;;18.60;99.90;;;;;;4861034;29;20048;-52
2023/07/29 00:49:19;;;;;;;2.72;1.30;;;18.70;99.90;;;;;;4860673;29;20070;-52
2023/07/29 00:51:46;;;;;;;4.82;1.30;;;18.60;99.90;;;;;;4859280;29;20533;-52
2023/07/29 00:54:13;;;;;;;3.97;1.25;;;18.60;99.90;;;;;;4860765;29;20045;-53
2023/07/29 00:56:40;;;;;;;5.00;1.40;;;18.50;99.90;;;;;;4862803;29;20069;-57
2023/07/29 00:59:07;;;;;;;5.30;1.52;;;18.50;99.90;;;;;;4862902;29;20458;-56
2023/07/29 01:01:33;;;;;;;2.78;1.58;;;18.60;99.90;;;;;;4864442;29;20052;-56
2023/07/29 01:04:00;;;;;;;4.28;1.88;;;18.50;99.90;;;;;;4863002;29;20053;-57
2023/07/29 01:06:28;;;;;;;3.80;1.88;;;18.50;99.90;;;;;;4864416;29;20200;-52
2023/07/29 01:08:55;;;;;;;3.67;1.55;;;18.50;99.90;;;;;;4863121;29;20052;-52
2023/07/29 01:11:22;;;;;;;3.72;1.63;;;18.40;99.90;;;;;;4847296;29;20141;-54
2023/07/29 01:13:52;;;;;;;2.80;1.80;;;18.40;99.90;;;;;;4863853;29;20053;-55
2023/07/29 01:16:19;;;;;;;5.20;2.13;;;18.30;99.90;;;;;;4862548;29;20057;-53
2023/07/29 01:18:46;;;;;;;3.85;2.03;;;18.30;99.90;;;;;;4862547;29;20173;-54
2023/07/29 01:21:13;;;;;;;3.88;1.52;;;18.30;99.90;;;;;;4862377;29;20060;-54
2023/07/29 01:23:40;;;;;;;4.28;1.88;;;18.30;99.90;;;;;;4862387;29;20105;-56
2023/07/29 01:26:07;;;;;;;3.40;1.90;;;18.30;99.90;;;;;;4847563;29;20057;-51
2023/07/29 01:28:34;;;;;;;3.83;1.80;;;18.30;99.90;;;;;;4863552;29;20042;-56
2023/07/29 01:31:01;;;;;;;3.50;1.70;;;18.30;99.90;;;;;;4862752;29;20113;-51
2023/07/29 01:33:28;;;;;;;4.22;1.80;;;18.20;99.90;;;;;;4863747;29;20052;-51
2023/07/29 01:35:54;;;;;;;3.25;2.00;;;18.20;99.90;;;;;;4862241;29;20057;-53
2023/07/29 01:38:21;;;;;;;3.35;1.80;;;18.20;99.90;;;;;;4863298;29;20468;-57
2023/07/29 01:40:48;;;;;;;6.38;1.80;;;18.20;99.90;;;;;;4863427;29;20374;-52
2023/07/29 01:43:15;;;;;;;4.88;2.10;;;18.20;99.90;;;;;;4862628;29;20151;-53
2023/07/29 01:45:41;;;;;;;4.35;2.00;;;18.10;99.90;;;;;;4846939;29;20041;-55
2023/07/29 01:48:09;;;;;;;2.63;1.70;;;18.10;99.90;;;;;;4862257;29;20049;-55
2023/07/29 01:50:35;;;;;;;3.45;1.88;;;18.10;99.90;;;;;;4847052;29;20072;-57
2023/07/29 01:53:02;;;;;;;4.13;2.20;;;18.10;99.90;;;;;;4846665;29;20049;-50
2023/07/29 01:55:29;;;;;;;3.38;2.03;;;18.10;99.90;;;;;;4863079;29;20048;-55
2023/07/29 01:57:56;;;;;;;3.95;2.25;;;18.10;99.90;;;;;;4846267;29;20056;-54
2023/07/29 02:00:24;;;;;;;5.25;2.60;;;18.10;99.90;;;;;;4846601;29;20049;-53
2023/07/29 02:02:51;;;;;;;4.50;2.55;;;18.00;99.90;;;;;;4846489;29;20050;-53
2023/07/29 02:05:18;;;;;;;3.78;2.10;;;18.00;99.90;;;;;;4846921;29;20053;-55
2023/07/29 02:07:45;;;;;;;4.05;2.40;;;17.90;99.90;;;;;;4830701;29;20053;-56
2023/07/29 02:10:13;;;;;;;5.72;2.65;;;17.90;99.90;;;;;;4846719;29;20046;-55
2023/07/29 02:12:40;;;;;;;6.10;2.50;;;17.90;99.90;;;;;;4846456;29;20524;-52
2023/07/29 02:15:07;;;;;;;5.75;2.33;;;17.90;99.90;;;;;;4861915;29;20136;-55
2023/07/29 02:17:33;;;;;;;7.15;2.58;;;17.90;99.90;;;;;;4862742;29;20075;-52
2023/07/29 02:20:00;;;;;;;5.28;2.20;;;17.80;99.90;;;;;;4846254;29;20049;-56
2023/07/29 02:22:27;;;;;;;4.88;2.78;;;17.80;99.90;;;;;;4846020;29;20054;-53
2023/07/29 02:24:54;;;;;;;5.43;2.50;;;17.80;99.90;;;;;;4863010;29;20033;-53
2023/07/29 02:27:21;;;;;;;5.97;2.90;;;17.80;99.90;;;;;;4846271;29;20102;-53
2023/07/29 02:29:48;;;;;;;3.63;2.22;;;17.80;99.90;;;;;;4846343;29;20047;-55
2023/07/29 02:32:15;;;;;;;6.32;2.92;;;17.80;99.90;;;;;;4862784;29;20045;-52
2023/07/29 02:34:42;;;;;;;8.48;3.10;;;17.80;99.90;;;;;;4845906;29;20046;-53
2023/07/29 02:37:09;;;;;;;6.40;3.00;;;17.80;99.90;;;;;;4861134;29;20064;-55
2023/07/29 02:39:36;;;;;;;5.65;2.90;;;17.80;99.90;;;;;;4862262;29;20450;-55
2023/07/29 02:42:02;;;;;;;4.88;2.90;;;17.80;99.90;;;;;;4861178;29;20050;-54
2023/07/29 02:44:29;;;;;;;6.55;2.97;;;17.80;99.90;;;;;;4845951;29;20046;-51
2023/07/29 02:46:56;;;;;;;4.28;2.72;;;17.80;99.90;;;;;;4862748;29;20550;-56
2023/07/29 02:49:23;;;;;;;6.00;3.28;;;17.80;99.90;;;;;;4845651;29;20054;-52
2023/07/29 02:51:50;;;;;;;6.10;3.03;;;17.80;99.90;;;;;;4861990;29;20049;-54
2023/07/29 02:54:17;;;;;;;5.53;2.72;;;17.80;99.90;;;;;;4862047;29;20045;-57
2023/07/29 02:56:44;;;;;;;5.47;2.80;;;17.80;99.90;;;;;;4845818;29;20085;-52
2023/07/29 02:59:10;;;;;;;4.88;2.72;;;17.80;99.90;;;;;;4845627;29;20049;-52
2023/07/29 03:01:37;;;;;;;6.25;3.17;;;17.70;99.90;;;;;;4861202;29;20056;-52
2023/07/29 03:04:04;;;;;;;6.80;2.92;;;17.70;99.90;;;;;;4845636;29;20490;-52
2023/07/29 03:06:31;;;;;;;7.10;2.83;;;17.70;99.90;;;;;;4845710;29;20110;-50
2023/07/29 03:08:58;;;;;;;7.60;2.75;;;17.70;99.90;;;;;;4861802;29;20517;-50
2023/07/29 03:11:25;;;;;;;8.48;2.67;;;17.70;99.90;;;;;;4861745;29;20038;-54
2023/07/29 03:13:52;;;;;;;6.38;2.58;;;17.70;99.90;;;;;;4860919;29;20466;-56
2023/07/29 03:16:19;;;;;;;6.20;2.25;;;17.70;99.90;;;;;;4861523;29;20053;-56
2023/07/29 03:18:51;;;;;;;7.20;2.72;;;17.80;99.90;;;;;;4859728;29;20053;-54
2023/07/29 03:21:18;;;;;;;5.47;2.60;;;17.80;99.90;;;;;;4861271;29;20077;-50
2023/07/29 03:23:45;;;;;;;7.80;2.78;;;17.80;99.90;;;;;;4861600;29;20446;-55
2023/07/29 03:26:11;;;;;;;6.35;2.67;;;17.80;99.90;;;;;;4861856;29;20064;-54
2023/07/29 03:28:38;;;;;;;6.88;3.00;;;17.80;99.90;;;;;;4861724;29;20045;-51
2023/07/29 03:31:05;;;;;;;8.52;2.72;;;17.80;99.90;;;;;;4860210;29;20048;-53
2023/07/29 03:33:32;;;;;;;5.22;3.17;;;17.80;99.90;;;;;;4861734;29;20128;-52
2023/07/29 03:35:59;;;;;;;4.88;2.30;;;17.80;99.90;;;;;;4844699;29;20082;-56
2023/07/29 03:38:26;;;;;;;6.93;3.05;;;17.80;99.90;;;;;;4860069;29;20051;-56
2023/07/29 03:40:56;;;;;;;8.63;2.90;;;17.80;99.90;;;;;;4844804;29;20052;-53
2023/07/29 03:43:23;;;;;;;6.47;2.67;;;17.80;99.90;;;;;;4862022;29;20037;-54
2023/07/29 03:45:50;;;;;;;6.80;2.70;;;17.80;99.90;;;;;;4860771;29;20046;-54
2023/07/29 03:48:17;;;;;;;6.47;2.63;;;17.80;99.90;;;;;;4861442;29;20045;-54
2023/07/29 03:50:44;;;;;;;5.75;2.60;;;17.80;99.90;;;;;;4845261;29;20049;-55
2023/07/29 03:53:10;;;;;;;5.70;2.85;;;17.80;99.90;;;;;;4861553;29;20144;-52
2023/07/29 03:55:37;;;;;;;7.07;3.10;;;17.90;99.90;;;;;;4844660;29;20050;-56
2023/07/29 03:58:04;;;;;;;7.43;3.20;;;17.90;99.90;;;;;;4860309;29;20052;-49
2023/07/29 04:00:31;;;;;;;9.10;3.00;;;17.80;99.90;;;;;;4845100;29;20054;-53
2023/07/29 04:02:58;;;;;;;7.68;3.00;;;17.80;99.90;;;;;;4844522;29;20569;-54
2023/07/29 04:05:26;;;;;;;8.23;2.72;;;17.80;99.90;;;;;;4860097;29;20165;-52
2023/07/29 04:07:53;;;;;;;5.53;3.10;;;17.80;99.90;;;;;;4859730;29;20046;-55
2023/07/29 04:10:20;;;;;;;6.93;3.28;;;17.80;99.90;;;;;;4860510;29;20393;-52
2023/07/29 04:12:47;;;;;;;9.40;3.13;;;17.90;99.90;;;;;;4859912;29;20045;-50
2023/07/29 04:15:14;;;;;;;8.80;3.10;;;17.80;99.90;;;;;;4860150;29;20050;-54
2023/07/29 04:17:41;;;;;;;7.75;3.35;;;17.80;99.90;;;;;;4860145;29;20053;-53
2023/07/29 04:20:08;;;;;;;7.50;3.42;;;17.80;99.90;;;;;;4844285;29;20088;-50
2023/07/29 04:22:35;;;;;;;7.22;3.33;;;17.80;99.90;;;;;;4860775;29;20041;-51
2023/07/29 04:25:01;;;;;;;6.20;2.83;;;17.80;99.90;;;;;;4861489;29;20540;-54
2023/07/29 04:27:28;;;;;;;9.25;3.13;;;17.80;99.90;;;;;;4859456;29;20405;-51
2023/07/29 04:29:55;;;;;;;8.38;3.80;;;17.70;99.90;;;;;;4862932;29;20045;-47
2023/07/29 04:32:22;;;;;;;9.48;3.10;;;17.70;99.90;;;;;;4863479;29;20413;-49
2023/07/29 04:34:48;;;;;;;6.05;3.05;;;17.70;99.90;;;;;;4864587;29;20056;-53
2023/07/29 04:37:15;;;;;;;7.82;3.30;;;17.70;99.90;;;;;;4864305;29;20434;-51
2023/07/29 04:39:42;;;;;;;8.75;3.00;;;17.70;99.90;;;;;;4862913;29;20057;-56
2023/07/29 04:42:09;;;;;;;10.60;3.15;;;17.70;99.90;;;;;;4847604;29;20062;-54
2023/07/29 04:44:36;;;;;;;8.98;3.38;;;17.70;99.90;;;;;;4864286;29;20051;-56
2023/07/29 04:47:02;;;;;;;11.68;3.47;;;17.70;99.90;;;;;;4847535;29;20401;-54
2023/07/29 04:49:29;;;;;;;8.02;3.35;;;17.70;99.90;;;;;;4847711;29;20046;-55
2023/07/29 04:51:56;;;;;;;6.40;3.22;;;17.70;99.90;;;;;;4848106;29;20557;-54
2023/07/29 04:54:23;;;;;;;7.20;3.35;;;17.60;99.90;;;;;;4847821;29;20148;-54
2023/07/29 04:56:50;;;;;;;5.50;2.80;;;17.60;99.90;;;;;;4864322;29;20104;-56
2023/07/29 04:59:17;;;;;;;6.78;3.13;;;17.60;99.90;;;;;;4864344;29;20049;-52
2023/07/29 05:01:44;;;;;;;8.95;3.28;;;17.60;99.90;;;;;;4864388;29;20077;-48
2023/07/29 05:04:11;;;;;;;10.70;3.10;;;17.60;99.90;;;;;;4863257;29;20045;-52
2023/07/29 05:06:38;;;;;;;6.50;3.13;;;17.60;99.90;;;;;;4864623;29;20075;-52
2023/07/29 05:09:05;;;;;;;8.68;3.40;;;17.60;99.90;;;;;;4864483;29;20120;-55
2023/07/29 05:11:32;;;;;;;9.55;3.03;;;17.50;99.90;;;;;;4864438;29;20052;-56
2023/07/29 05:13:58;;;;;;;6.80;3.15;;;17.60;99.90;;;;;;4847388;29;20051;-55
2023/07/29 05:16:25;;;;;;;8.75;3.30;;;17.50;99.90;;;;;;4847169;29;20042;-53
2023/07/29 05:18:52;;;;;;;6.43;3.33;;;17.50;99.90;;;;;;4863774;29;20060;-53
2023/07/29 05:21:19;;;;;;;7.60;3.15;;;17.50;99.90;;;;;;4863886;29;20504;-54
2023/07/29 05:23:46;;;;;;;8.00;3.08;;;17.50;99.90;;;;;;4862576;29;20488;-55
2023/07/29 05:26:13;;;;;;;12.50;3.33;;;17.50;99.90;;;;;;4863647;29;20084;-52
2023/07/29 05:28:40;;;;;;;9.15;3.60;;;17.50;99.90;;;;;;4847706;29;20081;-54
2023/07/29 05:31:06;;;;;;;9.60;3.35;;;17.50;99.90;;;;;;4862812;29;20140;-52
2023/07/29 05:33:36;;;;;;;6.35;2.78;;;17.50;99.90;;;;;;4847592;29;20045;-53
2023/07/29 05:36:03;;;;;;;5.78;2.95;;;17.50;99.90;;;;;;4862229;29;20505;-52
2023/07/29 05:38:30;;;;;;;10.30;3.88;;;17.50;99.90;;;;;;4862180;29;20386;-55
2023/07/29 05:40:57;;;;;;;10.90;3.47;;;17.50;99.90;;;;;;4861942;29;20098;-56
2023/07/29 05:43:23;;;;;;;7.35;3.58;;;17.50;99.90;;;;;;4862778;29;20056;-56
2023/07/29 05:45:50;;;;;;;8.02;3.75;;;17.50;99.90;;;;;;4862403;29;20049;-54
2023/07/29 05:48:17;;;;;;;9.75;3.83;;;17.50;99.90;;;;;;4862109;29;20045;-54
2023/07/29 05:50:44;;;;;;;12.40;4.30;;;17.50;99.90;;;;;;4846860;29;20144;-55
2023/07/29 05:53:11;;;;;;;7.97;4.00;;;17.50;99.90;;;;;;4861948;29;20049;-57
2023/07/29 05:55:38;;;;;;;8.68;4.05;;;17.50;99.90;;;;;;4862369;29;20592;-52
2023/07/29 05:58:04;;;;;;;8.85;4.00;;;17.50;99.90;;;;;;4847006;29;20056;-56
2023/07/29 06:00:31;;;;;;;8.90;3.60;;;17.50;99.90;;;;;;4862303;29;20474;-55
2023/07/29 06:02:59;;;;;;;9.05;3.90;;;17.50;99.90;;;;;;4846988;29;20050;-56
2023/07/29 06:05:26;;;;;;;7.38;4.00;;;17.50;99.90;;;;;;4862090;29;20101;-57
2023/07/29 06:07:53;;;;;;;12.73;4.10;;;17.60;99.90;;;;;;4863030;29;20081;-50
2023/07/29 06:10:21;;;;;;;7.32;3.47;;;17.60;99.90;;;;;;4861548;29;20094;-54
2023/07/29 06:12:49;;;;;;;8.70;3.17;;;17.60;99.90;;;;;;4861664;29;20049;-53
2023/07/29 06:15:15;;;;;;;7.70;3.08;;;17.70;99.90;;;;;;4846467;29;20498;-52
2023/07/29 06:17:42;;;;;;;6.03;2.80;;;17.70;99.90;;;;;;4846294;29;20053;-55
2023/07/29 06:20:09;;;;;;;5.82;3.03;;;17.70;99.90;;;;;;4846092;29;20516;-51
2023/07/29 06:22:36;;;;;;;7.25;3.10;;;17.70;99.90;;;;;;4863170;29;20077;-50
2023/07/29 06:25:03;;;;;;;4.20;2.50;;;17.70;99.90;;;;;;4846103;29;20076;-51
2023/07/29 06:27:30;;;;;;;5.82;2.50;;;17.70;99.90;;;;;;4863017;29;20121;-49
2023/07/29 06:29:57;;;;;;;6.32;2.53;;;17.70;99.90;;;;;;4862768;29;20042;-50
2023/07/29 06:32:24;;;;;;;5.20;2.80;;;17.70;99.90;;;;;;4863023;29;20045;-51
2023/07/29 06:34:51;;;;;;;5.75;2.33;;;17.70;99.90;;;;;;4862485;29;20140;-49
2023/07/29 06:37:18;;;;;;;5.25;2.40;;;17.70;99.90;;;;;;4861365;29;20041;-51
2023/07/29 06:39:45;;;;;;;4.82;2.30;;;17.80;99.90;;;;;;4861174;29;20507;-49
2023/07/29 06:42:12;;;;;;;4.57;2.30;;;17.80;99.90;;;;;;4862487;29;20363;-54
2023/07/29 06:44:39;;;;;;;4.57;2.30;;;17.90;99.90;;;;;;4862395;29;20068;-53
2023/07/29 06:47:06;;;;;;;4.38;2.28;;;18.00;99.90;;;;;;4862392;29;20169;-48
2023/07/29 06:49:32;;;;;;;4.72;2.00;;;18.10;99.90;;;;;;4862124;29;20045;-48
2023/07/29 06:51:59;;;;;;;5.72;2.20;;;18.10;99.90;;;;;;4862135;29;20042;-52
2023/07/29 06:54:26;;;;;;;5.45;1.92;;;18.10;99.90;;;;;;4861699;29;20045;-50
2023/07/29 06:56:53;;;;;;;7.57;2.20;;;18.00;99.90;;;;;;4862568;29;20045;-55
2023/07/29 06:59:20;;;;;;;5.25;2.00;;;18.00;99.90;;;;;;4862481;29;20056;-52
2023/07/29 07:01:46;;;;;;;5.88;1.90;;;18.10;99.90;;;;;;4862153;29;20047;-50
2023/07/29 07:04:13;;;;;;;4.32;1.92;;;18.10;99.90;;;;;;4845295;29;20054;-50
2023/07/29 07:06:40;;;;;;;5.00;1.88;;;18.10;99.90;;;;;;4861141;29;20042;-52
2023/07/29 07:09:07;;;;;;;3.95;2.00;;;18.20;99.90;;;;;;4860637;29;20473;-51
2023/07/29 07:11:34;;;;;;;4.85;1.90;;;18.40;99.90;;;;;;4862444;29;20041;-53
2023/07/29 07:14:00;;;;;;;5.40;1.90;;;18.60;99.90;;;;;;4862325;29;20145;-49
2023/07/29 07:16:30;;;;;;;3.70;1.50;;;18.70;99.90;;;;;;4861689;29;20049;-53
2023/07/29 07:18:57;;;;;;;4.00;1.60;;;18.90;99.90;;;;;;4861927;29;20056;-53
2023/07/29 07:21:23;;;;;;;3.97;1.80;;;19.10;99.90;;;;;;4861819;29;20489;-48
2023/07/29 07:23:50;;;;;;;2.70;1.42;;;19.20;99.90;;;;;;4861609;29;20053;-50
2023/07/29 07:26:17;;;;;;;6.82;1.70;;;19.30;99.90;;;;;;4862258;29;20101;-56
2023/07/29 07:28:44;;;;;;;5.53;1.75;;;19.30;99.90;;;;;;4861655;29;20046;-57
2023/07/29 07:31:11;;;;;;;5.75;1.88;;;19.30;99.90;;;;;;4861564;29;20413;-56
2023/07/29 07:33:37;;;;;;;3.40;1.50;;;19.30;99.90;;;;;;4844669;29;20057;-52
2023/07/29 07:36:04;;;;;;;4.32;1.60;;;19.30;99.90;;;;;;4861370;29;20045;-54
2023/07/29 07:38:31;;;;;;;3.47;1.42;;;19.30;99.90;;;;;;4861266;29;20049;-48
2023/07/29 07:40:58;;;;;;;5.57;1.95;;;19.40;99.90;;;;;;4861809;29;20045;-51
2023/07/29 07:43:24;;;;;;;3.20;1.40;;;19.40;99.90;;;;;;4860738;29;20401;-51
2023/07/29 07:45:51;;;;;;;4.25;1.70;;;19.50;99.90;;;;;;4862012;29;20405;-51
2023/07/29 07:48:20;;;;;;;4.05;1.80;;;19.60;99.90;;;;;;4861591;29;20077;-54
2023/07/29 07:50:46;;;;;;;3.65;1.60;;;19.60;99.90;;;;;;4861538;29;20132;-57
2023/07/29 07:53:13;;;;;;;4.18;2.00;;;19.60;99.90;;;;;;4861332;29;20053;-54
2023/07/29 07:55:40;;;;;;;4.28;1.88;;;19.50;99.90;;;;;;4861199;29;20125;-53
2023/07/29 07:58:07;;;;;;;6.00;1.73;;;19.60;99.90;;;;;;4861070;29;20057;-54
2023/07/29 08:00:33;;;;;;;4.07;1.50;;;19.60;99.90;;;;;;4861491;29;20050;-56
2023/07/29 08:03:00;;;;;;;3.67;1.98;;;19.60;99.90;;;;;;4861432;29;20060;-53
2023/07/29 08:05:27;;;;;;;3.28;1.63;;;19.50;99.90;;;;;;4861357;29;20482;-57
2023/07/29 08:07:54;;;;;;;5.10;1.70;;;19.60;99.90;;;;;;4845850;29;20118;-55
2023/07/29 08:10:21;;;;;;;5.00;1.83;;;19.70;99.90;;;;;;4862119;29;20481;-55
2023/07/29 08:12:47;;;;;;;3.70;1.50;;;19.90;99.90;;;;;;4861717;29;20049;-57
2023/07/29 08:15:14;;;;;;;4.93;1.67;;;20.00;99.90;;;;;;4861156;29;20060;-58
2023/07/29 08:17:41;;;;;;;3.25;1.42;;;20.20;99.90;;;;;;4861291;29;20053;-58
2023/07/29 08:20:08;;;;;;;4.55;1.58;;;20.40;99.90;;;;;;4861015;29;20045;-56
2023/07/29 08:22:35;;;;;;;4.13;1.80;;;20.40;99.90;;;;;;4860623;29;20049;-57
2023/07/29 08:25:01;;;;;;;3.20;1.70;;;20.40;99.90;;;;;;4860975;29;20046;-53
2023/07/29 08:27:28;;;;;;;5.05;1.80;;;20.40;99.90;;;;;;4861691;29;20074;-55
2023/07/29 08:29:55;;;;;;;4.00;1.50;;;20.30;99.90;;;;;;4860684;29;20128;-52
2023/07/29 08:32:22;;;;;;;5.97;2.10;;;20.20;99.90;;;;;;4860765;29;20045;-54
2023/07/29 08:34:49;;;;;;;4.10;1.55;;;20.20;99.90;;;;;;4860636;29;20046;-52
2023/07/29 08:37:15;;;;;;;4.30;1.90;;;20.10;99.90;;;;;;4860463;29;20056;-56
2023/07/29 08:39:42;;;;;;;6.70;2.20;;;19.70;99.90;;;;;;4860026;29;20373;-53
2023/07/29 08:42:10;;;;;;;2.83;1.80;;;19.20;99.90;;;;;;4860534;29;20041;-56
2023/07/29 08:44:37;;;;;;;6.35;2.00;;;18.60;99.90;;;;;;4860279;29;20078;-58
2023/07/29 08:47:04;;;;;;;7.22;2.15;;;18.20;99.90;;;;;;4860615;29;20128;-53
2023/07/29 08:49:30;;;;;;;9.43;2.45;;;17.90;99.90;;;;;;4860116;29;20106;-56
2023/07/29 08:51:57;;;;;;;4.15;1.63;;;17.60;99.90;;;;;;4860602;29;20053;-54
2023/07/29 08:54:24;;;;;;;4.85;2.00;;;17.40;99.90;;;;;;4859904;29;20049;-58
2023/07/29 08:56:51;;;;;;;5.38;1.88;;;17.20;99.90;;;;;;4860438;29;20056;-54
2023/07/29 08:59:18;;;;;;;4.55;1.88;;;17.20;99.90;;;;;;4860451;29;20470;-53
2023/07/29 09:01:44;;;;;;;4.43;2.00;;;17.30;99.90;;;;;;4858641;29;20520;-54
2023/07/29 09:04:11;;;;;;;3.50;1.80;;;17.50;99.90;;;;;;4860387;29;20409;-54
2023/07/29 09:06:38;;;;;;;3.70;1.92;;;17.60;99.90;;;;;;4859821;29;20051;-53
2023/07/29 09:09:05;;;;;;;5.43;1.92;;;17.80;99.90;;;;;;4860412;29;20072;-57
2023/07/29 09:11:32;;;;;;;4.85;2.00;;;18.00;99.90;;;;;;4860642;29;20049;-55
2023/07/29 09:13:59;;;;;;;5.15;1.67;;;18.10;99.90;;;;;;4859362;29;20052;-56
2023/07/29 09:16:26;;;;;;;3.42;1.70;;;18.20;99.90;;;;;;4860599;29;20049;-56
2023/07/29 09:18:53;;;;;;;3.80;1.67;;;18.30;99.90;;;;;;4862172;29;20060;-58
2023/07/29 09:21:19;;;;;;;4.60;2.17;;;18.30;99.90;;;;;;4863685;29;20069;-53
2023/07/29 09:23:46;;;;;;;4.93;1.77;;;18.30;99.90;;;;;;4863522;29;20045;-51
2023/07/29 09:26:13;;;;;;;5.28;1.75;;;18.40;99.90;;;;;;4863444;29;20094;-52
2023/07/29 09:28:40;;;;;;;6.88;2.03;;;18.50;99.90;;;;;;4862858;29;20038;-52
2023/07/29 09:31:07;;;;;;;4.40;1.90;;;18.50;99.90;;;;;;4862333;29;20132;-56
2023/07/29 09:33:37;;;;;;;5.25;2.08;;;18.60;99.90;;;;;;4863430;29;20110;-58
2023/07/29 09:36:03;;;;;;;5.55;1.85;;;18.60;99.90;;;;;;4862839;29;20041;-53
2023/07/29 09:38:30;;;;;;;5.53;2.03;;;18.60;99.90;;;;;;4863038;29;20049;-54
2023/07/29 09:40:58;;;;;;;7.35;2.20;;;18.50;99.90;;;;;;4862396;29;20041;-53
2023/07/29 09:43:24;;;;;;;5.78;2.28;;;18.40;99.90;;;;;;4863056;29;20045;-51
2023/07/29 09:45:51;;;;;;;5.43;2.25;;;18.40;99.90;;;;;;4863013;29;20049;-55
2023/07/29 09:48:18;;;;;;;7.82;1.92;;;18.50;99.90;;;;;;4862896;29;20489;-55
2023/07/29 09:50:45;;;;;;;6.30;2.30;;;18.60;99.90;;;;;;4862949;29;20101;-54
2023/07/29 09:53:11;;;;;;;6.88;1.95;;;18.60;99.90;;;;;;4863073;29;20059;-56
2023/07/29 09:55:38;;;;;;;4.53;2.10;;;18.60;99.90;;;;;;4862931;29;20049;-57
2023/07/29 09:58:08;;;;;;;4.38;2.00;;;18.70;99.90;;;;;;4862927;29;20045;-55
2023/07/29 10:00:35;;;;;;;4.63;2.10;;;18.80;99.90;;;;;;4862790;29;20518;-54
2023/07/29 10:03:01;;;;;;;5.57;2.38;;;18.90;99.90;;;;;;4846296;29;20085;-54
2023/07/29 10:05:28;;;;;;;5.03;1.88;;;19.10;99.90;;;;;;4861772;29;20049;-57
2023/07/29 10:07:55;;;;;;;4.65;2.38;;;19.20;99.90;;;;;;4861620;29;20048;-57
2023/07/29 10:10:22;;;;;;;5.40;2.15;;;19.30;99.90;;;;;;4861633;29;20042;-54
2023/07/29 10:12:49;;;;;;;5.90;2.28;;;19.20;99.90;;;;;;4861544;29;20048;-55
2023/07/29 10:15:16;;;;;;;6.47;2.35;;;19.20;99.90;;;;;;4861428;29;20046;-57
2023/07/29 10:17:42;;;;;;;7.40;2.35;;;19.20;99.90;;;;;;4861531;29;20037;-57
2023/07/29 10:20:09;;;;;;;6.40;2.15;;;19.20;99.90;;;;;;4861236;29;20045;-56
2023/07/29 10:22:37;;;;;;;6.22;2.03;;;19.20;99.90;;;;;;4862689;29;20081;-55
2023/07/29 10:25:04;;;;;;;5.15;2.03;;;19.10;99.90;;;;;;4862409;29;20516;-54
2023/07/29 10:27:31;;;;;;;4.40;1.80;;;19.00;99.90;;;;;;4862156;29;20533;-50
2023/07/29 10:29:58;;;;;;;6.07;2.15;;;19.00;99.90;;;;;;4862205;29;20049;-53
2023/07/29 10:32:25;;;;;;;4.65;2.13;;;19.00;99.90;;;;;;4862322;29;20049;-57
2023/07/29 10:34:51;;;;;;;6.70;2.47;;;19.00;99.90;;;;;;4862745;29;20347;-52
2023/07/29 10:37:18;;;;;;;5.10;2.10;;;19.10;99.90;;;;;;4862004;29;20046;-54
2023/07/29 10:39:45;;;;;;;6.03;2.38;;;19.20;99.90;;;;;;4862416;29;20106;-56
2023/07/29 10:42:12;;;;;;;5.82;2.10;;;19.20;99.90;;;;;;4862384;29;20116;-53
2023/07/29 10:44:39;;;;;;;7.72;2.30;;;19.30;99.90;;;;;;4862096;29;20056;-54
2023/07/29 10:47:05;;;;;;;4.97;2.35;;;19.40;99.90;;;;;;4862194;29;20041;-57
2023/07/29 10:49:32;;;;;;;4.88;1.70;;;19.50;99.90;;;;;;4862150;29;20041;-57
2023/07/29 10:51:59;;;;;;;4.45;2.03;;;19.60;99.90;;;;;;4862060;29;20057;-56
2023/07/29 10:54:26;;;;;;;4.65;1.70;;;19.90;99.90;;;;;;4862069;29;20057;-57
2023/07/29 10:56:52;;;;;;;7.95;2.13;;;20.20;99.90;;;;;;4861798;29;20412;-53
2023/07/29 10:59:19;;;;;;;5.63;2.05;;;20.50;99.90;;;;;;4861822;29;20046;-56
2023/07/29 11:01:46;;;;;;;3.10;1.40;;;20.60;99.90;;;;;;4861961;29;20161;-56
2023/07/29 11:04:13;;;;;;;6.32;1.70;;;20.80;99.90;;;;;;4862015;29;20493;-56
2023/07/29 11:06:40;;;;;;;4.35;1.90;;;20.80;99.90;;;;;;4861990;29;20042;-58
2023/07/29 11:09:06;;;;;;;5.60;2.08;;;20.80;99.90;;;;;;4861343;29;20053;-56
2023/07/29 11:11:33;;;;;;;7.28;2.10;;;20.90;99.90;;;;;;4845408;29;20041;-57
2023/07/29 11:14:00;;;;;;;6.30;1.98;;;21.00;99.90;;;;;;4861749;29;20515;-56
2023/07/29 11:16:27;;;;;;;5.57;1.80;;;21.00;99.90;;;;;;4861747;29;20128;-55
2023/07/29 11:18:53;;;;;;;4.93;1.88;;;20.90;99.90;;;;;;4861594;29;20049;-53
2023/07/29 11:21:20;;;;;;;4.68;2.10;;;20.70;99.90;;;;;;4861462;29;20061;-56
2023/07/29 11:23:48;;;;;;;4.78;1.88;;;20.70;99.90;;;;;;4861633;29;20050;-57
2023/07/29 11:26:14;;;;;;;7.82;1.73;;;20.70;99.90;;;;;;4861514;29;20053;-57
2023/07/29 11:28:41;;;;;;;4.82;1.70;;;20.80;99.90;;;;;;4861404;29;20041;-56
2023/07/29 11:31:08;;;;;;;4.85;1.70;;;20.90;99.30;;;;;;4861610;29;20416;-55
2023/07/29 11:33:35;;;;;;;5.75;1.92;;;21.00;99.90;;;;;;4861547;29;20366;-55
2023/07/29 11:36:02;;;;;;;4.93;1.77;;;21.20;99.00;;;;;;4853691;29;20484;-56
2023/07/29 11:38:32;;;;;;;5.00;1.92;;;21.20;99.10;;;;;;4854822;29;20497;-55
2023/07/29 11:40:59;;;;;;;5.20;1.90;;;21.40;99.50;;;;;;4855592;29;20076;-56
2023/07/29 11:43:26;;;;;;;6.75;2.00;;;21.50;98.00;;;;;;4860057;29;20474;-56
2023/07/29 11:45:53;;;;;;;7.55;2.17;;;21.60;98.50;;;;;;4861316;29;20041;-52
2023/07/29 11:48:20;;;;;;;4.72;1.90;;;21.70;97.80;;;;;;4860923;29;20033;-53
2023/07/29 11:50:47;;;;;;;3.47;1.50;;;21.70;96.60;;;;;;4844641;29;20046;-54
2023/07/29 11:53:14;;;;;;;7.05;2.00;;;21.60;97.60;;;;;;4861133;29;20045;-57
2023/07/29 11:55:43;;;;;;;6.85;2.20;;;21.50;97.90;;;;;;4855482;29;20065;-53
2023/07/29 11:58:10;;;;;;;6.30;1.95;;;21.40;97.80;;;;;;4861053;29;20049;-52
2023/07/29 12:00:36;;;;;;;6.30;1.90;;;21.20;98.60;;;;;;4861203;29;20037;-55
2023/07/29 12:03:03;;;;;;;5.88;1.70;;;21.00;99.10;;;;;;4861058;29;20045;-55
2023/07/29 12:05:30;;;;;;;4.88;1.80;;;20.80;99.10;;;;;;4844333;29;20101;-56
2023/07/29 12:07:57;;;;;;;5.38;1.88;;;20.80;99.50;;;;;;4860713;29;20387;-56
2023/07/29 12:10:24;;;;;;;5.43;2.08;;;20.90;99.90;;;;;;4854836;29;20494;-54
2023/07/29 12:12:51;;;;;;;6.10;1.73;;;21.00;99.20;;;;;;4860928;29;20056;-57
2023/07/29 12:15:18;;;;;;;4.85;1.58;;;21.10;99.60;;;;;;4855102;29;20136;-54
2023/07/29 12:17:47;;;;;;;3.80;1.50;;;21.30;98.60;;;;;;4860747;29;20054;-54
2023/07/29 12:20:15;;;;;;;5.15;2.00;;;21.40;98.20;;;;;;4860934;29;20102;-58
2023/07/29 12:22:42;;;;;;;5.50;2.38;;;21.50;98.10;;;;;;4860741;29;20173;-56
2023/07/29 12:25:08;;;;;;;6.88;2.78;;;21.60;98.10;;;;;;4861015;29;20465;-56
2023/07/29 12:27:35;;;;;;;5.20;2.20;;;21.70;98.10;;;;;;4854785;29;20517;-58
2023/07/29 12:30:05;;;;;;;6.72;2.53;;;21.80;97.90;;;;;;4854627;29;20063;-56
2023/07/29 12:32:32;;;;;;;4.80;1.83;;;21.90;97.60;;;;;;4860905;29;20128;-54
2023/07/29 12:34:59;;;;;;;5.18;2.00;;;22.10;97.60;;;;;;4860742;29;20060;-55
2023/07/29 12:37:25;;;;;;;4.78;1.77;;;22.10;97.90;;;;;;4860169;29;20053;-53
2023/07/29 12:39:52;;;;;;;6.63;1.95;;;22.20;97.10;;;;;;4860855;29;20053;-54
2023/07/29 12:42:19;;;;;;;7.32;2.00;;;22.30;97.10;;;;;;4854750;29;20045;-53